sensor_id;sensor_type;location;lat;lon;timestamp;pressure;altitude;pressure_sealevel;temperature;humidity
5988;BME280;3021;51.000;6.980;2023-11-21T00:00:08;67409.81;;;9.99;100.00
5988;BME280;3021;51.000;6.980;2023-11-21T00:02:37;67413.13;;;9.99;100.00
5988;BME280;3021;51.000;6.980;2023-11-21T00:05:06;67407.47;;;9.97;100.00
5988;BME280;3021;51.000;6.980;2023-11-21T00:07:33;67411.38;;;9.98;100.00
5988;BME280;3021;51.000;6.980;2023-11-21T00:09:58;67412.09;;;10.01;100.00
5988;BME280;3021;51.000;6.980;2023-11-21T00:12:23;67416.00;;;10.02;100.00
5988;BME280;3021;51.000;6.980;2023-11-21T00:14:50;67413.84;;;10.02;100.00
5988;BME280;3021;51.000;6.980;2023-11-21T00:17:15;67418.91;;;10.05;100.00
5988;BME280;3021;51.000;6.980;2023-11-21T00:19:40;67425.25;;;10.10;100.00
5988;BME280;3021;51.000;6.980;2023-11-21T00:22:08;67431.00;;;10.15;100.00
5988;BME280;3021;51.000;6.980;2023-11-21T00:24:34;67426.38;;;10.11;100.00
5988;BME280;3021;51.000;6.980;2023-11-21T00:26:59;67417.88;;;10.06;100.00
5988;BME280;3021;51.000;6.980;2023-11-21T00:29:25;67414.84;;;10.01;100.00
5988;BME280;3021;51.000;6.980;2023-11-21T00:31:51;67409.06;;;9.96;100.00
5988;BME280;3021;51.000;6.980;2023-11-21T00:34:16;67405.03;;;9.92;100.00
5988;BME280;3021;51.000;6.980;2023-11-21T00:36:41;67392.88;;;9.81;100.00
5988;BME280;3021;51.000;6.980;2023-11-21T00:39:07;67388.25;;;9.77;100.00
5988;BME280;3021;51.000;6.980;2023-11-21T00:41:33;67386.13;;;9.78;100.00
5988;BME280;3021;51.000;6.980;2023-11-21T00:43:58;67390.16;;;9.81;100.00
5988;BME280;3021;51.000;6.980;2023-11-21T00:46:24;67391.75;;;9.80;100.00
5988;BME280;3021;51.000;6.980;2023-11-21T00:48:52;67381.50;;;9.74;100.00
5988;BME280;3021;51.000;6.980;2023-11-21T00:51:17;67373.41;;;9.66;100.00
5988;BME280;3021;51.000;6.980;2023-11-21T00:53:42;67369.81;;;9.61;100.00
5988;BME280;3021;51.000;6.980;2023-11-21T00:56:08;67361.72;;;9.54;100.00
5988;BME280;3021;51.000;6.980;2023-11-21T00:58:33;67349.00;;;9.42;100.00
5988;BME280;3021;51.000;6.980;2023-11-21T01:00:59;67334.59;;;9.29;100.00
5988;BME280;3021;51.000;6.980;2023-11-21T01:03:24;67324.19;;;9.20;100.00
5988;BME280;3021;51.000;6.980;2023-11-21T01:05:49;67316.09;;;9.13;100.00
5988;BME280;3021;51.000;6.980;2023-11-21T01:08:15;67313.97;;;9.13;100.00
5988;BME280;3021;51.000;6.980;2023-11-21T01:10:41;67313.38;;;9.13;100.00
5988;BME280;3021;51.000;6.980;2023-11-21T01:13:06;67320.16;;;9.16;100.00
5988;BME280;3021;51.000;6.980;2023-11-21T01:15:33;67327.06;;;9.23;100.00
5988;BME280;3021;51.000;6.980;2023-11-21T01:17:58;67339.78;;;9.34;100.00
5988;BME280;3021;51.000;6.980;2023-11-21T01:20:23;67347.44;;;9.43;100.00
5988;BME280;3021;51.000;6.980;2023-11-21T01:22:49;67359.56;;;9.54;100.00
5988;BME280;3021;51.000;6.980;2023-11-21T01:25:14;67365.91;;;9.60;100.00
5988;BME280;3021;51.000;6.980;2023-11-21T01:27:41;67379.47;;;9.67;100.00
5988;BME280;3021;51.000;6.980;2023-11-21T01:30:07;67386.97;;;9.74;100.00
5988;BME280;3021;51.000;6.980;2023-11-21T01:32:33;67385.53;;;9.77;100.00
5988;BME280;3021;51.000;6.980;2023-11-21T01:34:59;67388.25;;;9.77;100.00
5988;BME280;3021;51.000;6.980;2023-11-21T01:37:25;67382.66;;;9.75;100.00
5988;BME280;3021;51.000;6.980;2023-11-21T01:39:53;67374.41;;;9.65;100.00
5988;BME280;3021;51.000;6.980;2023-11-21T01:42:18;67359.56;;;9.54;100.00
5988;BME280;3021;51.000;6.980;2023-11-21T01:44:43;67349.00;;;9.42;100.00
5988;BME280;3021;51.000;6.980;2023-11-21T01:47:09;67344.53;;;9.41;100.00
5988;BME280;3021;51.000;6.980;2023-11-21T01:49:35;67360.00;;;9.52;100.00
5988;BME280;3021;51.000;6.980;2023-11-21T01:52:01;67367.47;;;9.59;100.00
5988;BME280;3021;51.000;6.980;2023-11-21T01:54:27;67370.38;;;9.61;100.00
5988;BME280;3021;51.000;6.980;2023-11-21T01:56:57;67363.00;;;9.57;100.00
5988;BME280;3021;51.000;6.980;2023-11-21T01:59:30;67355.22;;;9.45;100.00
5988;BME280;3021;51.000;6.980;2023-11-21T02:01:59;67340.38;;;9.34;100.00
5988;BME280;3021;51.000;6.980;2023-11-21T02:04:24;67339.34;;;9.36;100.00
5988;BME280;3021;51.000;6.980;2023-11-21T02:06:50;67340.94;;;9.35;100.00
5988;BME280;3021;51.000;6.980;2023-11-21T02:09:16;67330.84;;;9.31;100.00
5988;BME280;3021;51.000;6.980;2023-11-21T02:11:42;67338.63;;;9.33;100.00
5988;BME280;3021;51.000;6.980;2023-11-21T02:14:09;67343.22;;;9.37;100.00
5988;BME280;3021;51.000;6.980;2023-11-21T02:16:35;67354.81;;;9.47;100.00
5988;BME280;3021;51.000;6.980;2023-11-21T02:19:01;67365.19;;;9.57;100.00
5988;BME280;3021;51.000;6.980;2023-11-21T02:21:28;67363.59;;;9.58;100.00
5988;BME280;3021;51.000;6.980;2023-11-21T02:23:55;67366.63;;;9.63;100.00
5988;BME280;3021;51.000;6.980;2023-11-21T02:26:20;67376.88;;;9.69;100.00
5988;BME280;3021;51.000;6.980;2023-11-21T02:28:45;67380.34;;;9.73;100.00
5988;BME280;3021;51.000;6.980;2023-11-21T02:31:11;67386.13;;;9.78;100.00
5988;BME280;3021;51.000;6.980;2023-11-21T02:33:37;67396.34;;;9.84;100.00
5988;BME280;3021;51.000;6.980;2023-11-21T02:36:03;67406.19;;;9.93;100.00
5988;BME280;3021;51.000;6.980;2023-11-21T02:38:28;67407.63;;;9.99;100.00
5988;BME280;3021;51.000;6.980;2023-11-21T02:40:54;67420.03;;;10.06;100.00
5988;BME280;3021;51.000;6.980;2023-11-21T02:43:19;67426.38;;;10.11;100.00
5988;BME280;3021;51.000;6.980;2023-11-21T02:45:44;67429.44;;;10.16;100.00
5988;BME280;3021;51.000;6.980;2023-11-21T02:48:10;67443.56;;;10.24;100.00
5988;BME280;3021;51.000;6.980;2023-11-21T02:50:35;67450.66;;;10.33;100.00
5988;BME280;3021;51.000;6.980;2023-11-21T02:53:01;67449.66;;;10.34;100.00
5988;BME280;3021;51.000;6.980;2023-11-21T02:55:27;67448.50;;;10.33;100.00
5988;BME280;3021;51.000;6.980;2023-11-21T02:57:53;67451.84;;;10.34;100.00
5988;BME280;3021;51.000;6.980;2023-11-21T03:00:18;67455.28;;;10.37;100.00
5988;BME280;3021;51.000;6.980;2023-11-21T03:02:43;67461.09;;;10.42;100.00
5988;BME280;3021;51.000;6.980;2023-11-21T03:05:09;67462.81;;;10.44;100.00
5988;BME280;3021;51.000;6.980;2023-11-21T03:07:36;67461.66;;;10.43;100.00
5988;BME280;3021;51.000;6.980;2023-11-21T03:10:02;67460.50;;;10.42;100.00
5988;BME280;3021;51.000;6.980;2023-11-21T03:12:29;67458.34;;;10.42;100.00
5988;BME280;3021;51.000;6.980;2023-11-21T03:14:54;67461.38;;;10.47;100.00
5988;BME280;3021;51.000;6.980;2023-11-21T03:17:19;67465.13;;;10.46;100.00
5988;BME280;3021;51.000;6.980;2023-11-21T03:19:45;67458.06;;;10.47;100.00
5988;BME280;3021;51.000;6.980;2023-11-21T03:22:10;67467.44;;;10.48;100.00
5988;BME280;3021;51.000;6.980;2023-11-21T03:24:37;67464.53;;;10.45;100.00
5988;BME280;3021;51.000;6.980;2023-11-21T03:27:03;67456.47;;;10.38;100.00
5988;BME280;3021;51.000;6.980;2023-11-21T03:29:29;67447.34;;;10.32;100.00
5988;BME280;3021;51.000;6.980;2023-11-21T03:31:54;67440.97;;;10.27;100.00
5988;BME280;3021;51.000;6.980;2023-11-21T03:34:24;67435.19;;;10.21;100.00
5988;BME280;3021;51.000;6.980;2023-11-21T03:36:51;67441.28;;;10.22;100.00
5988;BME280;3021;51.000;6.980;2023-11-21T03:39:16;67439.81;;;10.26;100.00
5988;BME280;3021;51.000;6.980;2023-11-21T03:41:41;67440.25;;;10.24;100.00
5988;BME280;3021;51.000;6.980;2023-11-21T03:44:07;67435.34;;;10.24;100.00
5988;BME280;3021;51.000;6.980;2023-11-21T03:46:32;67437.53;;;10.24;100.00
5988;BME280;3021;51.000;6.980;2023-11-21T03:48:57;67434.78;;;10.24;100.00
5988;BME280;3021;51.000;6.980;2023-11-21T03:51:23;67438.53;;;10.22;100.00
5988;BME280;3021;51.000;6.980;2023-11-21T03:53:48;67436.81;;;10.20;100.00
5988;BME280;3021;51.000;6.980;2023-11-21T03:56:14;67434.63;;;10.21;100.00
5988;BME280;3021;51.000;6.980;2023-11-21T03:58:39;67434.63;;;10.21;100.00
5988;BME280;3021;51.000;6.980;2023-11-21T04:01:05;67428.44;;;10.18;100.00
5988;BME280;3021;51.000;6.980;2023-11-21T04:03:30;67433.91;;;10.18;100.00
5988;BME280;3021;51.000;6.980;2023-11-21T04:05:56;67429.44;;;10.16;100.00
5988;BME280;3021;51.000;6.980;2023-11-21T04:08:22;67428.84;;;10.16;100.00
5988;BME280;3021;51.000;6.980;2023-11-21T04:10:47;67430.59;;;10.17;100.00
5988;BME280;3021;51.000;6.980;2023-11-21T04:13:13;67431.59;;;10.16;100.00
5988;BME280;3021;51.000;6.980;2023-11-21T04:15:39;67430.00;;;10.17;100.00
5988;BME280;3021;51.000;6.980;2023-11-21T04:18:04;67431.00;;;10.15;100.00
5988;BME280;3021;51.000;6.980;2023-11-21T04:20:29;67423.66;;;10.11;100.00
5988;BME280;3021;51.000;6.980;2023-11-21T04:22:55;67420.34;;;10.11;100.00
5988;BME280;3021;51.000;6.980;2023-11-21T04:25:20;67419.19;;;10.10;100.00
5988;BME280;3021;51.000;6.980;2023-11-21T04:27:45;67424.09;;;10.09;100.00
5988;BME280;3021;51.000;6.980;2023-11-21T04:30:12;67422.34;;;10.08;100.00
5988;BME280;3021;51.000;6.980;2023-11-21T04:32:38;67418.91;;;10.05;100.00
5988;BME280;3021;51.000;6.980;2023-11-21T04:35:04;67415.00;;;10.03;100.00
5988;BME280;3021;51.000;6.980;2023-11-21T04:37:30;67412.53;;;9.99;100.00
5988;BME280;3021;51.000;6.980;2023-11-21T04:39:55;67408.06;;;9.97;100.00
5988;BME280;3021;51.000;6.980;2023-11-21T04:42:20;67401.56;;;9.89;100.00
5988;BME280;3021;51.000;6.980;2023-11-21T04:44:46;67395.94;;;9.86;100.00
5988;BME280;3021;51.000;6.980;2023-11-21T04:47:11;67393.75;;;9.87;100.00
5988;BME280;3021;51.000;6.980;2023-11-21T04:49:37;67398.22;;;9.89;100.00
5988;BME280;3021;51.000;6.980;2023-11-21T04:52:02;67401.13;;;9.91;100.00
5988;BME280;3021;51.000;6.980;2023-11-21T04:54:30;67394.78;;;9.85;100.00
5988;BME280;3021;51.000;6.980;2023-11-21T04:56:56;67391.75;;;9.80;100.00
5988;BME280;3021;51.000;6.980;2023-11-21T04:59:22;67388.41;;;9.80;100.00
5988;BME280;3021;51.000;6.980;2023-11-21T05:01:50;67383.22;;;9.75;100.00
5988;BME280;3021;51.000;6.980;2023-11-21T05:04:15;67378.59;;;9.71;100.00
5988;BME280;3021;51.000;6.980;2023-11-21T05:06:40;67375.00;;;9.65;100.00
5988;BME280;3021;51.000;6.980;2023-11-21T05:09:06;67369.38;;;9.63;100.00
5988;BME280;3021;51.000;6.980;2023-11-21T05:11:36;67368.78;;;9.62;100.00
5988;BME280;3021;51.000;6.980;2023-11-21T05:14:02;67369.38;;;9.63;100.00
5988;BME280;3021;51.000;6.980;2023-11-21T05:16:28;67375.59;;;9.66;100.00
5988;BME280;3021;51.000;6.980;2023-11-21T05:18:53;67376.16;;;9.66;100.00
5988;BME280;3021;51.000;6.980;2023-11-21T05:21:21;67380.06;;;9.67;100.00
5988;BME280;3021;51.000;6.980;2023-11-21T05:23:46;67381.34;;;9.71;100.00
5988;BME280;3021;51.000;6.980;2023-11-21T05:26:12;67374.13;;;9.69;100.00
5988;BME280;3021;51.000;6.980;2023-11-21T05:28:37;67379.03;;;9.69;100.00
5988;BME280;3021;51.000;6.980;2023-11-21T05:31:02;67376.88;;;9.69;100.00
5988;BME280;3021;51.000;6.980;2023-11-21T05:33:28;67374.13;;;9.69;100.00
5988;BME280;3021;51.000;6.980;2023-11-21T05:35:53;67377.88;;;9.68;100.00
5988;BME280;3021;51.000;6.980;2023-11-21T05:38:18;67377.88;;;9.68;100.00
5988;BME280;3021;51.000;6.980;2023-11-21T05:40:43;67372.41;;;9.68;100.00
5988;BME280;3021;51.000;6.980;2023-11-21T05:43:09;67379.03;;;9.69;100.00
5988;BME280;3021;51.000;6.980;2023-11-21T05:45:34;67374.13;;;9.69;100.00
5988;BME280;3021;51.000;6.980;2023-11-21T05:47:59;67372.84;;;9.66;100.00
5988;BME280;3021;51.000;6.980;2023-11-21T05:50:25;67377.31;;;9.67;100.00
5988;BME280;3021;51.000;6.980;2023-11-21T05:52:50;67379.63;;;9.69;100.00
5988;BME280;3021;51.000;6.980;2023-11-21T05:55:16;67378.03;;;9.71;100.00
5988;BME280;3021;51.000;6.980;2023-11-21T05:57:42;67377.44;;;9.70;100.00
5988;BME280;3021;51.000;6.980;2023-11-21T06:00:10;67381.34;;;9.71;100.00
5988;BME280;3021;51.000;6.980;2023-11-21T06:02:37;67382.50;;;9.72;100.00
5988;BME280;3021;51.000;6.980;2023-11-21T06:05:04;67386.53;;;9.76;100.00
5988;BME280;3021;51.000;6.980;2023-11-21T06:07:29;67388.25;;;9.77;100.00
5988;BME280;3021;51.000;6.980;2023-11-21T06:09:55;67386.53;;;9.76;100.00
5988;BME280;3021;51.000;6.980;2023-11-21T06:12:20;67383.22;;;9.75;100.00
5988;BME280;3021;51.000;6.980;2023-11-21T06:14:45;67383.22;;;9.75;100.00
5988;BME280;3021;51.000;6.980;2023-11-21T06:17:11;67389.44;;;9.78;100.00
5988;BME280;3021;51.000;6.980;2023-11-21T06:19:36;67389.59;;;9.81;100.00
5988;BME280;3021;51.000;6.980;2023-11-21T06:22:02;67394.78;;;9.85;100.00
5988;BME280;3021;51.000;6.980;2023-11-21T06:24:27;67401.13;;;9.91;100.00
5988;BME280;3021;51.000;6.980;2023-11-21T06:26:53;67400.56;;;9.91;100.00
5988;BME280;3021;51.000;6.980;2023-11-21T06:29:18;67396.34;;;9.84;100.00
5988;BME280;3021;51.000;6.980;2023-11-21T06:31:43;67388.25;;;9.77;100.00
5988;BME280;3021;51.000;6.980;2023-11-21T06:34:09;67378.75;;;9.74;100.00
5988;BME280;3021;51.000;6.980;2023-11-21T06:36:35;67379.19;;;9.72;100.00
5988;BME280;3021;51.000;6.980;2023-11-21T06:39:01;67380.94;;;9.73;100.00
5988;BME280;3021;51.000;6.980;2023-11-21T06:41:26;67384.97;;;9.77;100.00
5988;BME280;3021;51.000;6.980;2023-11-21T06:43:51;67388.25;;;9.77;100.00
5988;BME280;3021;51.000;6.980;2023-11-21T06:46:18;67387.13;;;9.76;100.00
5988;BME280;3021;51.000;6.980;2023-11-21T06:48:45;67390.16;;;9.81;100.00
5988;BME280;3021;51.000;6.980;2023-11-21T06:51:10;67395.38;;;9.86;100.00
5988;BME280;3021;51.000;6.980;2023-11-21T06:53:36;67406.19;;;9.93;100.00
5988;BME280;3021;51.000;6.980;2023-11-21T06:56:02;67407.31;;;9.94;100.00
5988;BME280;3021;51.000;6.980;2023-11-21T06:58:27;67407.47;;;9.97;100.00
5988;BME280;3021;51.000;6.980;2023-11-21T07:00:52;67409.66;;;9.96;100.00
5988;BME280;3021;51.000;6.980;2023-11-21T07:03:18;67399.97;;;9.90;100.00
5988;BME280;3021;51.000;6.980;2023-11-21T07:05:44;67400.56;;;9.91;100.00
5988;BME280;3021;51.000;6.980;2023-11-21T07:08:10;67405.59;;;9.93;100.00
5988;BME280;3021;51.000;6.980;2023-11-21T07:10:35;67406.75;;;9.94;100.00
5988;BME280;3021;51.000;6.980;2023-11-21T07:13:01;67411.78;;;9.96;100.00
5988;BME280;3021;51.000;6.980;2023-11-21T07:15:27;67412.53;;;9.99;100.00
5988;BME280;3021;51.000;6.980;2023-11-21T07:17:53;67413.25;;;10.02;100.00
5988;BME280;3021;51.000;6.980;2023-11-21T07:20:19;67415.16;;;10.06;100.00
5988;BME280;3021;51.000;6.980;2023-11-21T07:22:44;67428.13;;;10.13;100.00
5988;BME280;3021;51.000;6.980;2023-11-21T07:25:10;67432.91;;;10.19;100.00
5988;BME280;3021;51.000;6.980;2023-11-21T07:27:35;67434.78;;;10.24;100.00
5988;BME280;3021;51.000;6.980;2023-11-21T07:30:02;67445.03;;;10.30;100.00
5988;BME280;3021;51.000;6.980;2023-11-21T07:32:33;67451.41;;;10.36;100.00
5988;BME280;3021;51.000;6.980;2023-11-21T07:34:58;67458.91;;;10.43;100.00
5988;BME280;3021;51.000;6.980;2023-11-21T07:37:25;67467.00;;;10.50;100.00
5988;BME280;3021;51.000;6.980;2023-11-21T07:39:51;67468.72;;;10.51;100.00
5988;BME280;3021;51.000;6.980;2023-11-21T07:42:22;67475.25;;;10.60;100.00
5988;BME280;3021;51.000;6.980;2023-11-21T07:44:48;67485.50;;;10.66;100.00
5988;BME280;3021;51.000;6.980;2023-11-21T07:47:13;67491.25;;;10.71;100.00
5988;BME280;3021;51.000;6.980;2023-11-21T07:49:38;67494.16;;;10.74;100.00
5988;BME280;3021;51.000;6.980;2023-11-21T07:52:04;67497.06;;;10.77;100.00
5988;BME280;3021;51.000;6.980;2023-11-21T07:54:29;67496.47;;;10.76;100.00
5988;BME280;3021;51.000;6.980;2023-11-21T07:56:55;67502.09;;;10.79;100.00
5988;BME280;3021;51.000;6.980;2023-11-21T07:59:20;67501.09;;;10.80;100.00
5988;BME280;3021;51.000;6.980;2023-11-21T08:01:46;67502.25;;;10.81;100.00
5988;BME280;3021;51.000;6.980;2023-11-21T08:04:11;67505.59;;;10.82;100.00
5988;BME280;3021;51.000;6.980;2023-11-21T08:06:38;67503.97;;;10.83;100.00
5988;BME280;3021;51.000;6.980;2023-11-21T08:09:04;67494.16;;;10.74;100.00
5988;BME280;3021;51.000;6.980;2023-11-21T08:11:29;67491.25;;;10.71;100.00
5988;BME280;3021;51.000;6.980;2023-11-21T08:13:56;67494.16;;;10.74;100.00
5988;BME280;3021;51.000;6.980;2023-11-21T08:16:22;67487.09;;;10.65;100.00
5988;BME280;3021;51.000;6.980;2023-11-21T08:18:49;67490.13;;;10.70;100.00
5988;BME280;3021;51.000;6.980;2023-11-21T08:21:14;67491.84;;;10.72;100.00
5988;BME280;3021;51.000;6.980;2023-11-21T08:23:39;67493.00;;;10.73;100.00
5988;BME280;3021;51.000;6.980;2023-11-21T08:26:05;67507.88;;;10.84;100.00
5988;BME280;3021;51.000;6.980;2023-11-21T08:28:30;67503.25;;;10.80;100.00
5988;BME280;3021;51.000;6.980;2023-11-21T08:30:56;67495.16;;;10.72;100.00
5988;BME280;3021;51.000;6.980;2023-11-21T08:33:21;67493.00;;;10.73;100.00
5988;BME280;3021;51.000;6.980;2023-11-21T08:35:48;67503.84;;;10.80;100.00
5988;BME280;3021;51.000;6.980;2023-11-21T08:38:13;67496.63;;;10.79;100.00
5988;BME280;3021;51.000;6.980;2023-11-21T08:40:39;67501.69;;;10.81;100.00
5988;BME280;3021;51.000;6.980;2023-11-21T08:43:04;67509.19;;;10.87;100.00
5988;BME280;3021;51.000;6.980;2023-11-21T08:45:30;67520.03;;;10.95;100.00
5988;BME280;3021;51.000;6.980;2023-11-21T08:47:55;67526.53;;;11.03;100.00
5988;BME280;3021;51.000;6.980;2023-11-21T08:50:21;67531.16;;;11.07;100.00
5988;BME280;3021;51.000;6.980;2023-11-21T08:52:48;67539.09;;;11.12;100.00
5988;BME280;3021;51.000;6.980;2023-11-21T08:55:14;67531.31;;;11.10;100.00
5988;BME280;3021;51.000;6.980;2023-11-21T08:57:40;67542.59;;;11.15;100.00
5988;BME280;3021;51.000;6.980;2023-11-21T09:00:07;67545.44;;;11.17;100.00
5988;BME280;3021;51.000;6.980;2023-11-21T09:02:36;67540.97;;;11.16;100.00
5988;BME280;3021;51.000;6.980;2023-11-21T09:05:03;67540.84;;;11.13;100.00
5988;BME280;3021;51.000;6.980;2023-11-21T09:07:29;67541.41;;;11.14;100.00
5988;BME280;3021;51.000;6.980;2023-11-21T09:09:54;67555.44;;;11.29;100.00
5988;BME280;3021;51.000;6.980;2023-11-21T09:12:20;67563.09;;;11.38;100.00
5988;BME280;3021;51.000;6.980;2023-11-21T09:14:47;67571.63;;;11.43;100.00
5988;BME280;3021;51.000;6.980;2023-11-21T09:17:12;67574.97;;;11.44;100.00
5988;BME280;3021;51.000;6.980;2023-11-21T09:19:38;67574.38;;;11.43;100.00
5988;BME280;3021;51.000;6.980;2023-11-21T09:22:04;67568.75;;;11.40;100.00
5988;BME280;3021;51.000;6.980;2023-11-21T09:24:30;67565.28;;;11.37;100.00
5988;BME280;3021;51.000;6.980;2023-11-21T09:26:56;67567.59;;;11.39;100.00
5988;BME280;3021;51.000;6.980;2023-11-21T09:29:21;67565.84;;;11.38;100.00
5988;BME280;3021;51.000;6.980;2023-11-21T09:31:47;67569.75;;;11.39;100.00
5988;BME280;3021;51.000;6.980;2023-11-21T09:34:12;67572.78;;;11.44;100.00
5988;BME280;3021;51.000;6.980;2023-11-21T09:36:40;67564.53;;;11.34;100.00
5988;BME280;3021;51.000;6.980;2023-11-21T09:39:06;67577.41;;;11.48;100.00
5988;BME280;3021;51.000;6.980;2023-11-21T09:44:05;67587.81;;;11.57;100.00
5988;BME280;3021;51.000;6.980;2023-11-21T09:46:37;67587.81;;;11.57;100.00
5988;BME280;3021;51.000;6.980;2023-11-21T09:49:05;67602.84;;;11.71;100.00
5988;BME280;3021;51.000;6.980;2023-11-21T09:51:36;67600.69;;;11.71;100.00
5988;BME280;3021;51.000;6.980;2023-11-21T09:54:07;67607.50;;;11.75;100.00
5988;BME280;3021;51.000;6.980;2023-11-21T09:56:34;67625.59;;;11.93;100.00
5988;BME280;3021;51.000;6.980;2023-11-21T09:59:01;67641.63;;;12.05;100.00
5988;BME280;3021;51.000;6.980;2023-11-21T10:01:30;67666.66;;;12.30;100.00
5988;BME280;3021;51.000;6.980;2023-11-21T10:03:56;67670.13;;;12.33;100.00
5988;BME280;3021;51.000;6.980;2023-11-21T10:06:22;67674.19;;;12.37;100.00
5988;BME280;3021;51.000;6.980;2023-11-21T10:08:50;67676.78;;;12.34;100.00
5988;BME280;3021;51.000;6.980;2023-11-21T10:11:17;67655.69;;;12.20;100.00
5988;BME280;3021;51.000;6.980;2023-11-21T10:13:45;67652.19;;;12.17;100.00
5988;BME280;3021;51.000;6.980;2023-11-21T10:16:14;67651.03;;;12.16;100.00
5988;BME280;3021;51.000;6.980;2023-11-21T10:18:41;67646.84;;;12.10;100.00
5988;BME280;3021;51.000;6.980;2023-11-21T10:21:07;67637.59;;;12.02;100.00
5988;BME280;3021;51.000;6.980;2023-11-21T10:23:34;67632.38;;;11.97;100.00
5988;BME280;3021;51.000;6.980;2023-11-21T10:25:59;67607.63;;;11.78;100.00
5988;BME280;3021;51.000;6.980;2023-11-21T10:28:26;67613.84;;;11.81;100.00
5988;BME280;3021;51.000;6.980;2023-11-21T10:30:51;67602.41;;;11.73;100.00
5988;BME280;3021;51.000;6.980;2023-11-21T10:33:27;67604.59;;;11.72;100.00
5988;BME280;3021;51.000;6.980;2023-11-21T10:35:52;67621.66;;;11.83;100.00
5988;BME280;3021;51.000;6.980;2023-11-21T10:38:20;67624.25;;;11.90;100.00
5988;BME280;3021;51.000;6.980;2023-11-21T10:40:51;67631.22;;;11.96;100.00
5988;BME280;3021;51.000;6.980;2023-11-21T10:43:17;67642.94;;;12.09;100.00
5988;BME280;3021;51.000;6.980;2023-11-21T10:45:44;67646.84;;;12.10;100.00
5988;BME280;3021;51.000;6.980;2023-11-21T10:48:12;67643.53;;;12.09;100.00
5988;BME280;3021;51.000;6.980;2023-11-21T10:50:40;67635.84;;;12.00;100.00
5988;BME280;3021;51.000;6.980;2023-11-21T10:53:06;67631.94;;;11.99;100.00
5988;BME280;3021;51.000;6.980;2023-11-21T10:55:32;67626.16;;;11.94;100.00
5988;BME280;3021;51.000;6.980;2023-11-21T10:57:59;67635.28;;;12.00;100.00
5988;BME280;3021;51.000;6.980;2023-11-21T11:00:27;67648.00;;;12.11;100.00
5988;BME280;3021;51.000;6.980;2023-11-21T11:02:53;67653.78;;;12.16;100.00
5988;BME280;3021;51.000;6.980;2023-11-21T11:05:30;67662.63;;;12.26;100.00
5988;BME280;3021;51.000;6.980;2023-11-21T11:08:08;67678.25;;;12.40;100.00
5988;BME280;3021;51.000;6.980;2023-11-21T11:10:33;67672.91;;;12.33;100.00
5988;BME280;3021;51.000;6.980;2023-11-21T11:12:59;67675.91;;;12.38;100.00
5988;BME280;3021;51.000;6.980;2023-11-21T11:15:26;67679.81;;;12.39;100.00
5988;BME280;3021;51.000;6.980;2023-11-21T11:17:53;67676.34;;;12.36;100.00
5988;BME280;3021;51.000;6.980;2023-11-21T11:20:29;67675.78;;;12.36;100.00
5988;BME280;3021;51.000;6.980;2023-11-21T11:23:09;67670.72;;;12.34;100.00
5988;BME280;3021;51.000;6.980;2023-11-21T11:25:49;67676.94;;;12.37;100.00
5988;BME280;3021;51.000;6.980;2023-11-21T11:28:27;67680.25;;;12.37;100.00
5988;BME280;3021;51.000;6.980;2023-11-21T11:36:13;67676.50;;;12.39;100.00
5988;BME280;3021;51.000;6.980;2023-11-21T11:38:45;67679.53;;;12.44;100.00
5988;BME280;3021;51.000;6.980;2023-11-21T11:41:11;67700.06;;;12.57;100.00
5988;BME280;3021;51.000;6.980;2023-11-21T11:43:37;67716.31;;;12.72;100.00
5988;BME280;3021;51.000;6.980;2023-11-21T11:46:10;67733.22;;;12.89;100.00
5988;BME280;3021;51.000;6.980;2023-11-21T11:48:39;67751.63;;;13.03;100.00
5988;BME280;3021;51.000;6.980;2023-11-21T11:51:12;67748.72;;;13.01;100.00
5988;BME280;3021;51.000;6.980;2023-11-21T11:53:41;67744.81;;;13.00;100.00
5988;BME280;3021;51.000;6.980;2023-11-21T11:58:54;67753.22;;;13.02;100.00
5988;BME280;3021;51.000;6.980;2023-11-21T12:01:20;67739.44;;;12.92;100.00
5988;BME280;3021;51.000;6.980;2023-11-21T12:06:42;67749.13;;;12.99;100.00
5988;BME280;3021;51.000;6.980;2023-11-21T12:09:17;67751.63;;;13.03;100.00
5988;BME280;3021;51.000;6.980;2023-11-21T12:11:43;67767.25;;;13.17;100.00
5988;BME280;3021;51.000;6.980;2023-11-21T12:14:09;67782.88;;;13.31;100.00
5988;BME280;3021;51.000;6.980;2023-11-21T12:16:35;67777.81;;;13.29;100.00
5988;BME280;3021;51.000;6.980;2023-11-21T12:19:00;67771.31;;;13.21;100.00
5988;BME280;3021;51.000;6.980;2023-11-21T12:21:26;67747.69;;;13.02;100.00
5988;BME280;3021;51.000;6.980;2023-11-21T12:23:52;67733.66;;;12.87;100.00
5988;BME280;3021;51.000;6.980;2023-11-21T12:26:18;67726.13;;;12.81;100.00
5988;BME280;3021;51.000;6.980;2023-11-21T12:28:43;67745.81;;;12.98;100.00
5988;BME280;3021;51.000;6.980;2023-11-21T12:31:08;67761.31;;;13.09;100.00
5988;BME280;3021;51.000;6.980;2023-11-21T12:33:34;67767.38;;;13.20;100.00
5988;BME280;3021;51.000;6.980;2023-11-21T12:36:00;67758.09;;;13.11;100.00
5988;BME280;3021;51.000;6.980;2023-11-21T12:38:33;67743.06;;;12.98;100.00
5988;BME280;3021;51.000;6.980;2023-11-21T12:40:59;67732.94;;;12.84;100.00
5988;BME280;3021;51.000;6.980;2023-11-21T12:43:24;67719.78;;;12.75;100.00
5988;BME280;3021;51.000;6.980;2023-11-21T12:45:49;67693.28;;;12.54;100.00
5988;BME280;3021;51.000;6.980;2023-11-21T12:48:15;67687.50;;;12.49;100.00
5988;BME280;3021;51.000;6.980;2023-11-21T12:50:42;67689.66;;;12.48;100.00
5988;BME280;3021;51.000;6.980;2023-11-21T12:53:11;67685.59;;;12.44;100.00
5988;BME280;3021;51.000;6.980;2023-11-21T12:55:38;67709.94;;;12.66;100.00
5988;BME280;3021;51.000;6.980;2023-11-21T12:58:05;67718.16;;;12.76;100.00
5988;BME280;3021;51.000;6.980;2023-11-21T13:03:03;67740.63;;;12.93;100.00
5988;BME280;3021;51.000;6.980;2023-11-21T13:05:32;67734.25;;;12.88;100.00
5988;BME280;3021;51.000;6.980;2023-11-21T13:07:59;67732.06;;;12.88;100.00
5988;BME280;3021;51.000;6.980;2023-11-21T13:10:28;67745.97;;;13.01;100.00
5988;BME280;3021;51.000;6.980;2023-11-21T13:12:58;67756.81;;;13.08;100.00
5988;BME280;3021;51.000;6.980;2023-11-21T13:15:25;67749.44;;;13.04;100.00
5988;BME280;3021;51.000;6.980;2023-11-21T13:17:51;67764.22;;;13.12;100.00
5988;BME280;3021;51.000;6.980;2023-11-21T13:20:17;67758.69;;;13.12;100.00
5988;BME280;3021;51.000;6.980;2023-11-21T13:22:55;67771.31;;;13.21;100.00
5988;BME280;3021;51.000;6.980;2023-11-21T13:25:26;67784.78;;;13.35;100.00